Startpagina
METAR-TAF:

METAR-TAF

Vliegvelden :

Anchorage, Alaska, Verenigde Staten

breedte: 61-13N, lengte: 149-51W, hoogte: 42 m

Actueel weer

Dit bericht is 49 minuten geleden gemaakt, om 03:53 UTC
Weinig wind
Temperatuur 1°C
Vochtigheid 75%
Druk 1006 hPa
Zicht: 16.1 km
Verspreide wolken op 10000 ft

METAR: PAMR 090353Z 00000KT 10SM SCT100 01/M03 A2971 RMK AO2 SLP061 T00111028 $

Tijdstip: 19:42 (04:42 UTC)


TAF: ontbreekt

Waarnemingen en weersverwachtingen van meer dan 4000 vliegvelden (METAR en TAF).

De beschikbare stations zijn de gele en rode punten op de kaart.

Ga met uw muis naar het station om de naam te zien.

Klik dan om waarnemingen en weersverwachtingen te zien.

kaart wijzigen: klik op de groene knoppen met een zwart kruis om in te zoomen, op de groene knop met een streepje om uit te zoomen of op de groene pijlen voor aangrenzende kaarten.


METAR-TAF: